AirNav   Pilot Hours Calculator
 
 1091 users online  

15WI Peterson Field Airport
Oregon, Wisconsin, USA

GOING TO OREGON?


FAA INFORMATION EFFECTIVE 05 NOVEMBER 2020

Location

FAA Identifier: 15WI
Lat/Long: 42-55-39.0000N 089-25-05.4300W
42-55.650000N 089-25.090500W
42.9275000,-89.4181750
(estimated)
Elevation: 978 ft. / 298 m (estimated)
Variation: 00E (1985)
From city: 2 miles W of OREGON, WI
Time zone: UTC -6 (UTC -5 during Daylight Saving Time)
Zip code: 53575

Airport Operations

Airport use: Private use. Permission required prior to landing
Activation date: 08/1978
Control tower: no
ARTCC: CHICAGO CENTER
FSS: GREEN BAY FLIGHT SERVICE STATION
Attendance: UNATNDD
Wind indicator: yes
Segmented circle: no

Airport Communications

WX AWOS-3 at C29 (12 nm NW): 118.675 (608-833-1686)
WX ASOS at MSN (13 nm N): PHONE 608-249-0615

Nearby radio navigation aids

VOR radial/distance  VOR name  Freq  Var
MSNr192/13.5MADISON VORTAC108.6003E
JVLr325/26.1JANESVILLE VOR/DME114.3003E

 
NDB name  Hdg/Dist  Freq  Var  ID
ROCK RIVER245/33.837101WRYV .-. -.-- ...-

Airport Services

Runway Information

Runway E/W

Dimensions: 2600 x 150 ft. / 792 x 46 m
Surface: turf
RUNWAY E  RUNWAY W
Traffic pattern: leftleft

Airport Ownership and Management from official FAA records

Ownership: Privately-owned
Owner: OREGON FARM LIMITED PARTNERSHIP
1275 LATHERS ROAD
OREGON, WI 53575
Phone 608-835-3768
Manager: PHILIP L. PETERSON
1275 LATHERS ROAD
OREGON, WI 53575
Phone 608-835-3768

Airport Operational Statistics

Aircraft based on the field: 1
Single engine airplanes: 1
    

Additional Remarks

FOR CD CTC CHICAGO ARTCC AT 630-906-8921.

Instrument Procedures

There are no published instrument procedures at 15WI.

Some nearby airports with instrument procedures:

C29 - Middleton Municipal Airport - Morey Field (12 nm NW)
KMSN - Dane County Regional Airport-Truax Field (13 nm N)
87Y - Blackhawk Airfield (15 nm NE)
KEFT - Monroe Municipal Airport (20 nm S)
KJVL - Southern Wisconsin Regional Airport (25 nm SE)
 
Loc | Ops | Rwys | IFR | FBO | Links
Com | Nav | Svcs | Stats | Notes
Area around 15WI (Peterson Field Airport)
 
Road maps at: MapQuest Bing Google
 
Aerial photo
No photo
 
Sectional chart

 
Airport distance calculator
Flying to Peterson Field Airport? Find the distance to fly.

From to 15WI

Sunrise and sunset
Times for 27-Nov-2020
 Local
(UTC-6)
 Zulu
(UTC)
Morning civil twilight06:3512:35
Sunrise07:0713:07
Sunset16:2522:25
Evening civil twilight16:5622:56

Current date and time
Zulu (UTC)  27-Nov-2020 19:29:46
Local (UTC-6)  27-Nov-2020 13:29:46
 
METAR
KC29 
12nm NW 
271915Z AUTO 28009KT 10SM CLR 06/M02 A3005 RMK AO1 T00561017
KMSN 
13nm N 
271853Z 28010KT 10SM FEW028 04/M02 A3005 RMK AO2 SLP183 T00441017
KEFT 
21nm S 
271915Z AUTO 27009G14KT 10SM CLR 05/M01 A3006 RMK AO2 T00471014
TAF
KMSN 
13nm N 
271720Z 2718/2818 29009KT P6SM SCT025 FM280500 27004KT P6SM FEW250 FM280800 24005KT P6SM SKC FM281700 23010G18KT P6SM SKC
NOTAMs
Click for the latest NOTAMs
NOTAMs are issued by the DoD/FAA and will open in a separate window not controlled by AirNav.

 

 
 

Would you like to see your business listed on this page?

 If your business provides an interesting product or service to pilots, flight crews, aircraft, or users of the Peterson Field Airport, you should consider listing it here.  To start the listing process, click on the button below
 
Add a business
 

Other Pages about Peterson Field Airport

Update a link
 
Copyright © AirNav, LLC. All rights reserved. Privacy Policy  Contact